Time;durP1;ratioP1;P1;durP2;ratioP2;P2;SDS_P1;SDS_P2;PMS_P1;PMS_P2;Temp;Humidity;BMP_temperature;BMP_pressure;BME280_temperature;BME280_humidity;BME280_pressure;Samples;Min_cycle;Max_cycle;Signal;HPM_P1;HPM_P2
2021/01/09 00:01:12;;;;;;;9.43;7.97;;;;;;;0.37;75.99;97640.25;13032874;22;20439;-73
2021/01/09 00:06:39;;;;;;;10.45;7.60;;;;;;;0.39;75.66;97639.72;13032695;22;20105;-73
2021/01/09 00:11:58;;;;;;;10.65;7.60;;;;;;;0.40;76.26;97635.72;13034171;22;20031;-73
2021/01/09 00:17:18;;;;;;;10.27;7.57;;;;;;;0.33;76.03;97639.09;13034159;22;20027;-73
2021/01/09 00:22:39;;;;;;;10.20;7.30;;;;;;;0.27;76.45;97645.41;13033625;22;20027;-73
2021/01/09 00:28:00;;;;;;;8.73;6.90;;;;;;;0.28;76.34;97651.63;13054498;22;20033;-73
2021/01/09 00:33:19;;;;;;;11.25;7.78;;;;;;;0.38;76.25;97655.44;13053898;22;20027;-73
2021/01/09 00:38:39;;;;;;;9.35;7.28;;;;;;;0.41;76.08;97659.16;13022977;22;20100;-73
2021/01/09 00:44:02;;;;;;;10.18;7.18;;;;;;;0.42;75.82;97666.13;13013579;22;20030;-73
2021/01/09 00:49:22;;;;;;;9.65;7.57;;;;;;;0.43;76.12;97673.84;13054006;22;20047;-73
2021/01/09 00:54:43;;;;;;;9.23;7.10;;;;;;;0.48;76.15;97664.00;13032356;22;20034;-73
2021/01/09 01:00:05;;;;;;;9.02;6.93;;;;;;;0.51;75.89;97676.69;13012385;22;20033;-73
2021/01/09 01:05:25;;;;;;;7.70;6.90;;;;;;;0.55;75.87;97674.34;12989011;22;20094;-73
2021/01/09 01:10:46;;;;;;;10.23;7.63;;;;;;;0.59;75.71;97680.28;13053341;22;20049;-73
2021/01/09 01:16:05;;;;;;;8.63;7.30;;;;;;;0.65;75.80;97683.66;13031500;22;20093;-73
2021/01/09 01:21:25;;;;;;;8.55;7.05;;;;;;;0.64;75.79;97682.19;13011495;22;20038;-73
2021/01/09 01:26:45;;;;;;;9.98;7.50;;;;;;;0.59;75.85;97680.28;13032461;22;20037;-73
2021/01/09 01:32:05;;;;;;;7.90;6.60;;;;;;;0.58;75.96;97684.31;13031250;22;20031;-73
2021/01/09 01:37:25;;;;;;;10.20;7.00;;;;;;;0.61;76.01;97693.50;12989434;22;20034;-73
2021/01/09 01:42:45;;;;;;;9.70;7.45;;;;;;;0.56;75.55;97686.81;13053094;22;20106;-73
2021/01/09 01:48:09;;;;;;;9.45;7.20;;;;;;;0.56;75.60;97695.81;12989057;22;20098;-73
2021/01/09 01:53:29;;;;;;;8.63;7.10;;;;;;;0.62;75.86;97701.19;12969107;22;20027;-73
2021/01/09 01:58:49;;;;;;;10.52;6.68;;;;;;;0.61;75.87;97688.75;12988729;22;20038;-73
2021/01/09 02:04:09;;;;;;;9.40;6.90;;;;;;;0.66;76.08;97700.88;13050668;22;20098;-73
2021/01/09 02:09:31;;;;;;;8.43;6.95;;;;;;;0.69;75.80;97695.06;13009131;22;20149;-73
2021/01/09 02:14:54;;;;;;;8.73;7.35;;;;;;;0.69;76.14;97689.59;13031381;22;20027;-73
2021/01/09 02:20:13;;;;;;;10.02;7.05;;;;;;;0.69;76.08;97695.06;13009210;22;20389;-73
2021/01/09 02:25:33;;;;;;;8.55;6.63;;;;;;;0.74;75.87;97696.97;13030187;22;20027;-73
2021/01/09 02:30:53;;;;;;;8.30;6.28;;;;;;;0.77;75.26;97695.91;13009896;22;20054;-73
2021/01/09 02:36:13;;;;;;;11.30;7.57;;;;;;;0.77;75.28;97704.16;12989078;22;20057;-73
2021/01/09 02:41:34;;;;;;;10.68;7.68;;;;;;;0.80;75.87;97711.34;13030600;22;20031;-73
2021/01/09 02:46:54;;;;;;;9.43;7.13;;;;;;;0.78;75.84;97705.63;13053252;22;20090;-73
2021/01/09 02:52:14;;;;;;;9.88;6.85;;;;;;;0.78;75.94;97708.38;13008833;22;20027;-73
2021/01/09 02:57:34;;;;;;;8.63;6.70;;;;;;;0.74;75.94;97707.94;13029955;22;20130;-73
2021/01/09 03:02:53;;;;;;;9.20;7.07;;;;;;;0.79;75.62;97723.59;13009923;22;20027;-73
2021/01/09 03:08:13;;;;;;;8.75;6.55;;;;;;;0.90;75.99;97710.91;13035542;22;20393;-73
2021/01/09 03:13:33;;;;;;;7.32;6.50;;;;;;;0.88;75.22;97716.22;13012607;22;20098;-73
2021/01/09 03:18:53;;;;;;;8.68;6.50;;;;;;;0.92;75.63;97720.09;13012859;22;20343;-73
2021/01/09 03:24:12;;;;;;;6.90;5.80;;;;;;;0.94;75.45;97725.06;13055951;22;20388;-73
2021/01/09 03:29:32;;;;;;;9.18;6.50;;;;;;;1.01;75.77;97725.16;13012858;22;20030;-73
2021/01/09 03:34:52;;;;;;;7.65;6.43;;;;;;;1.03;75.43;97721.88;13055503;22;20027;-73
2021/01/09 03:40:12;;;;;;;8.35;6.65;;;;;;;1.01;75.24;97730.66;13039879;22;20057;-73
2021/01/09 03:45:31;;;;;;;8.52;6.95;;;;;;;1.04;75.62;97723.34;13034413;22;20061;-73
2021/01/09 03:50:52;;;;;;;7.97;6.75;;;;;;;1.02;75.37;97726.66;13055402;22;20073;-73
2021/01/09 03:56:11;;;;;;;9.30;6.85;;;;;;;1.03;75.58;97730.13;13034350;22;20335;-73
2021/01/09 04:01:31;;;;;;;7.57;6.40;;;;;;;0.95;75.40;97732.78;13034536;22;20027;-74
2021/01/09 04:06:51;;;;;;;9.20;6.55;;;;;;;0.96;75.65;97736.25;13032988;22;20097;-73
2021/01/09 04:12:11;;;;;;;8.20;6.60;;;;;;;0.99;75.20;97738.72;13032973;22;20027;-73
2021/01/09 04:17:31;;;;;;;7.68;6.10;;;;;;;1.04;75.56;97739.84;13032144;22;20450;-73
2021/01/09 04:22:51;;;;;;;9.05;6.93;;;;;;;1.05;75.88;97741.31;13010967;22;20458;-73
2021/01/09 04:28:11;;;;;;;7.47;6.28;;;;;;;1.04;75.39;97740.59;13012507;22;20129;-73
2021/01/09 04:33:31;;;;;;;7.32;5.82;;;;;;;1.07;75.09;97745.03;13032703;22;20019;-72
2021/01/09 04:38:50;;;;;;;6.75;5.85;;;;;;;1.09;75.28;97752.75;13000920;22;20102;-73
2021/01/09 04:44:11;;;;;;;7.93;6.07;;;;;;;1.11;75.04;97761.22;13031988;22;20507;-73
2021/01/09 04:49:31;;;;;;;9.40;6.68;;;;;;;1.16;75.53;97763.13;12989898;22;20100;-73
2021/01/09 04:54:51;;;;;;;8.88;6.32;;;;;;;1.23;75.17;97767.97;13031589;22;20027;-73
2021/01/09 05:00:12;;;;;;;7.15;5.85;;;;;;;1.29;75.53;97773.34;13031738;22;20027;-73
2021/01/09 05:05:32;;;;;;;7.65;6.20;;;;;;;1.34;75.33;97778.72;13031504;22;20037;-73
2021/01/09 05:10:53;;;;;;;8.07;6.90;;;;;;;1.38;74.97;97787.41;12990907;22;20027;-73
2021/01/09 05:16:13;;;;;;;7.72;6.22;;;;;;;1.40;75.42;97793.13;13010117;22;20480;-73
2021/01/09 05:21:35;;;;;;;7.55;6.13;;;;;;;1.42;75.09;97796.06;13032785;22;20081;-73
2021/01/09 05:26:55;;;;;;;9.10;6.10;;;;;;;1.39;75.61;97791.63;13031222;22;20034;-72
2021/01/09 05:32:16;;;;;;;8.82;6.55;;;;;;;1.37;75.22;97787.94;13009720;22;20027;-73
2021/01/09 05:37:36;;;;;;;8.77;6.70;;;;;;;1.35;75.52;97798.72;13026901;22;20023;-73
2021/01/09 05:43:07;;;;;;;9.30;7.10;;;;;;;1.31;75.88;97801.81;13030881;22;20385;-73
2021/01/09 05:48:34;;;;;;;10.57;7.10;;;;;;;1.30;75.95;97808.56;13052655;22;20031;-72
2021/01/09 05:53:54;;;;;;;9.05;7.20;;;;;;;1.29;75.78;97812.59;13009052;22;20060;-72
2021/01/09 05:59:14;;;;;;;10.23;7.43;;;;;;;1.28;75.83;97819.38;13009915;22;20160;-73
2021/01/09 06:04:33;;;;;;;9.02;6.60;;;;;;;1.20;75.32;97818.53;12989446;22;20446;-72
2021/01/09 06:10:03;;;;;;;8.40;6.68;;;;;;;1.19;75.57;97838.31;13009225;22;20096;-73
2021/01/09 06:15:23;;;;;;;8.45;6.95;;;;;;;1.20;75.42;97840.53;13031633;22;20379;-72
2021/01/09 06:20:45;;;;;;;10.00;7.57;;;;;;;1.24;75.82;97854.69;12986597;22;20027;-73
2021/01/09 06:26:05;;;;;;;13.65;8.82;;;;;;;1.26;75.23;97865.91;13031220;22;20168;-73
2021/01/09 06:31:28;;;;;;;9.82;7.45;;;;;;;1.26;75.57;97862.44;13031037;22;20027;-74
2021/01/09 06:36:54;;;;;;;11.50;8.00;;;;;;;1.29;75.49;97861.38;13008428;22;20030;-73
2021/01/09 06:42:13;;;;;;;9.95;7.60;;;;;;;1.29;75.27;97869.63;13013305;22;20031;-73
2021/01/09 06:47:33;;;;;;;8.20;6.55;;;;;;;1.28;75.53;97863.38;13056524;22;20027;-73
2021/01/09 06:52:59;;;;;;;7.55;6.60;;;;;;;1.32;75.09;97874.03;13013646;22;20023;-73
2021/01/09 06:58:27;;;;;;;7.82;6.28;;;;;;;1.30;75.55;97877.31;13055951;22;20027;-73
2021/01/09 07:03:47;;;;;;;9.25;7.10;;;;;;;1.28;75.12;97885.38;13014988;22;20349;-74
2021/01/09 07:09:07;;;;;;;9.40;7.07;;;;;;;1.32;75.58;97888.53;13035035;22;20027;-74
2021/01/09 07:14:34;;;;;;;8.18;6.63;;;;;;;1.36;75.29;97891.72;13056071;22;20051;-73
2021/01/09 07:19:54;;;;;;;8.13;6.82;;;;;;;1.40;75.32;97903.16;13055782;22;20034;-74
2021/01/09 07:25:14;;;;;;;10.50;6.80;;;;;;;1.42;75.13;97900.59;13033907;22;20028;-74
2021/01/09 07:30:34;;;;;;;8.52;6.55;;;;;;;1.46;75.20;97916.06;12970841;22;20069;-73
2021/01/09 07:35:54;;;;;;;9.73;6.40;;;;;;;1.53;75.54;97915.41;13034535;22;20023;-73
2021/01/09 07:41:34;;;;;;;7.97;6.57;;;;;;;1.60;75.07;97921.03;13033403;22;20364;-73
2021/01/09 07:46:58;;;;;;;7.10;6.30;;;;;;;1.65;75.50;97939.44;13012695;22;20053;-73
2021/01/09 07:52:19;;;;;;;10.77;6.47;;;;;;;1.68;74.97;97941.13;13078581;22;20461;-73
2021/01/09 07:57:39;;;;;;;7.63;5.68;;;;;;;1.71;74.73;97953.09;13033182;22;20034;-73
2021/01/09 08:02:59;;;;;;;7.68;5.82;;;;;;;1.68;75.23;97946.63;13054574;22;20047;-73
2021/01/09 08:08:18;;;;;;;7.75;5.95;;;;;;;1.66;74.43;97957.44;13033042;22;20027;-72
2021/01/09 08:13:38;;;;;;;8.02;5.75;;;;;;;1.74;74.46;97957.56;13032689;22;20080;-72
2021/01/09 08:19:17;;;;;;;7.30;5.72;;;;;;;1.81;74.26;97956.16;13053992;22;20027;-73
2021/01/09 08:24:37;;;;;;;12.88;5.63;;;;;;;1.85;73.93;97960.06;13011886;22;20033;-73
2021/01/09 08:29:56;;;;;;;8.50;5.07;;;;;;;1.86;73.88;97964.31;13078600;22;20450;-73
2021/01/09 08:35:16;;;;;;;6.95;5.35;;;;;;;1.92;73.54;97967.69;13032236;22;20085;-74
2021/01/09 08:40:36;;;;;;;8.23;5.15;;;;;;;2.01;73.84;97975.50;12989425;22;20366;-73
2021/01/09 08:45:56;;;;;;;8.40;5.25;;;;;;;2.12;73.62;97968.28;13054187;22;20031;-73
2021/01/09 08:51:16;;;;;;;9.13;5.07;;;;;;;2.27;73.73;97966.47;13055049;22;20501;-73
2021/01/09 08:56:36;;;;;;;5.25;4.38;;;;;;;2.48;72.83;97966.50;13054310;22;20165;-73
2021/01/09 09:01:57;;;;;;;5.90;4.40;;;;;;;2.67;72.95;97969.09;13031687;22;20038;-73
2021/01/09 09:07:20;;;;;;;6.63;5.03;;;;;;;2.96;72.19;97982.97;13032391;22;20042;-73
2021/01/09 09:12:40;;;;;;;7.97;4.90;;;;;;;3.23;71.32;97987.09;13032482;22;20442;-73
2021/01/09 09:17:59;;;;;;;6.38;4.60;;;;;;;3.54;71.67;97990.06;13031451;22;20028;-73
2021/01/09 09:23:22;;;;;;;5.95;3.92;;;;;;;3.80;71.33;97997.44;13009982;22;20094;-73
2021/01/09 09:28:50;;;;;;;6.15;4.50;;;;;;;4.11;70.92;97998.34;13054145;22;20027;-73
2021/01/09 09:34:14;;;;;;;4.65;3.40;;;;;;;4.55;70.81;97991.53;13033599;22;20027;-73
2021/01/09 09:39:35;;;;;;;3.73;3.10;;;;;;;5.08;70.16;97990.16;13018616;22;20084;-73
2021/01/09 09:44:56;;;;;;;4.55;3.33;;;;;;;5.84;69.63;97990.13;13075670;22;20496;-73
2021/01/09 09:50:42;;;;;;;4.35;3.70;;;;;;;6.97;68.26;97987.50;13053888;22;20501;-73
2021/01/09 09:56:15;;;;;;;5.65;4.18;;;;;;;7.58;67.05;97984.25;12861408;23;20114;-73
2021/01/09 10:01:35;;;;;;;6.07;4.78;;;;;;;7.92;65.76;97985.59;12857510;23;20028;-73
2021/01/09 10:06:55;;;;;;;6.30;5.32;;;;;;;8.42;65.33;97979.88;12816052;23;20028;-74
2021/01/09 10:12:15;;;;;;;6.55;4.68;;;;;;;9.72;64.58;97981.47;12836481;23;20028;-73
2021/01/09 10:17:34;;;;;;;6.38;5.00;;;;;;;11.10;63.28;97971.84;12857831;23;20028;-76
2021/01/09 10:22:57;;;;;;;7.57;5.28;;;;;;;12.02;61.03;97973.13;12879072;23;20519;-77
2021/01/09 10:28:17;;;;;;;5.93;4.35;;;;;;;13.39;60.36;97981.69;13054743;22;20023;-78
2021/01/09 10:33:37;;;;;;;6.15;4.35;;;;;;;15.40;56.70;97975.41;13012354;22;20027;-78
2021/01/09 10:38:57;;;;;;;7.80;6.28;;;;;;;14.35;51.45;97973.94;13055567;22;20031;-76
2021/01/09 10:44:17;;;;;;;5.75;5.15;;;;;;;12.75;51.70;97974.28;13053590;22;20090;-77
2021/01/09 10:49:37;;;;;;;11.40;8.57;;;;;;;12.53;50.56;97973.59;13054636;22;20027;-76
2021/01/09 10:55:02;;;;;;;11.95;9.30;;;;;;;12.82;50.02;97966.97;13091536;22;20026;-77
2021/01/09 11:00:35;;;;;;;10.77;9.20;;;;;;;12.47;46.95;97967.63;13113659;22;20450;-87
2021/01/09 11:06:05;;;;;;;11.07;9.30;;;;;;;11.70;46.57;97974.50;13058604;22;20080;-76
2021/01/09 11:11:25;;;;;;;10.77;8.98;;;;;;;10.69;46.20;97973.13;13116754;22;20348;-75
2021/01/09 11:16:45;;;;;;;9.73;8.30;;;;;;;9.94;46.37;97968.44;13093791;22;20098;-76
2021/01/09 11:22:04;;;;;;;11.60;7.97;;;;;;;9.65;47.12;97962.81;13117503;22;20026;-77
2021/01/09 11:27:24;;;;;;;9.25;7.32;;;;;;;9.34;46.40;97974.47;13119294;22;20072;-76
2021/01/09 11:32:44;;;;;;;7.32;6.05;;;;;;;8.76;46.65;97965.88;13141818;22;20027;-75
2021/01/09 11:38:04;;;;;;;7.25;5.65;;;;;;;8.27;46.51;97966.84;13141767;22;20054;-79
2021/01/09 11:43:27;;;;;;;10.50;7.95;;;;;;;7.62;46.95;97965.13;13121501;22;20023;-79
2021/01/09 11:48:53;;;;;;;9.88;6.25;;;;;;;7.30;47.18;97962.44;13092479;22;20027;-81
2021/01/09 11:54:13;;;;;;;7.93;5.78;;;;;;;6.53;47.13;97954.63;13124182;22;20052;-79
2021/01/09 11:59:33;;;;;;;6.90;5.40;;;;;;;6.64;47.73;97961.78;13117755;22;20181;-78
2021/01/09 12:04:53;;;;;;;5.95;5.13;;;;;;;6.38;48.06;97951.94;13119571;22;20019;-77
2021/01/09 12:10:16;;;;;;;7.53;5.47;;;;;;;6.75;48.56;97961.34;13095699;22;20488;-77
2021/01/09 12:15:35;;;;;;;6.00;4.88;;;;;;;7.02;47.70;97967.09;13097723;22;20027;-78
2021/01/09 12:20:55;;;;;;;6.20;5.00;;;;;;;6.69;47.49;97966.38;13153225;22;20034;-79
2021/01/09 12:26:19;;;;;;;8.48;5.18;;;;;;;6.42;48.00;97968.91;13143893;22;20026;-79
2021/01/09 12:31:40;;;;;;;5.90;5.20;;;;;;;6.55;48.26;97970.69;13120850;22;20050;-79
2021/01/09 12:37:00;;;;;;;9.60;6.20;;;;;;;6.39;48.35;97963.75;13139804;22;20053;-78
2021/01/09 12:42:20;;;;;;;7.40;5.97;;;;;;;5.62;48.51;97968.75;13095674;22;20022;-78
2021/01/09 12:47:44;;;;;;;8.23;5.90;;;;;;;5.35;49.00;97977.44;13140101;22;20453;-78
2021/01/09 12:53:04;;;;;;;8.90;6.90;;;;;;;5.86;50.19;97975.72;13137010;22;20033;-80
2021/01/09 12:58:24;;;;;;;11.75;7.72;;;;;;;6.40;49.54;97968.75;13141689;22;20053;-80
2021/01/09 13:03:46;;;;;;;7.43;5.00;;;;;;;7.07;48.82;97971.69;13131175;22;20542;-81
2021/01/09 13:09:29;;;;;;;6.70;5.50;;;;;;;6.77;48.54;97975.41;13160781;22;20042;-82
2021/01/09 13:20:58;;;;;;;7.75;6.25;;;;;;;6.59;49.37;97985.66;13080077;22;20023;-79
2021/01/09 13:26:19;;;;;;;8.73;6.43;;;;;;;6.28;49.61;97992.63;13011811;22;20023;-80
2021/01/09 13:31:42;;;;;;;8.90;6.45;;;;;;;6.64;49.10;97994.31;13078348;22;20345;-80
2021/01/09 13:37:06;;;;;;;8.38;6.70;;;;;;;7.08;49.74;98000.91;13034063;22;20373;-80
2021/01/09 13:42:26;;;;;;;6.55;5.70;;;;;;;6.58;47.96;98000.84;13036923;22;20027;-78
2021/01/09 15:46:57;;;;;;;7.43;4.97;;;;;;;1.60;57.25;98093.63;13049652;22;20026;-75
2021/01/09 15:52:17;;;;;;;6.97;5.30;;;;;;;1.52;58.82;98096.25;13053474;22;20465;-76
2021/01/09 15:57:38;;;;;;;8.57;5.60;;;;;;;1.47;58.94;98099.13;13031563;22;20031;-76
2021/01/09 16:02:58;;;;;;;9.00;5.80;;;;;;;1.43;58.25;98113.16;13031897;22;20028;-74
2021/01/09 16:08:18;;;;;;;8.65;5.85;;;;;;;1.37;58.01;98110.50;13075042;22;20478;-75
2021/01/09 16:13:38;;;;;;;7.63;5.55;;;;;;;1.30;59.40;98118.63;12988084;22;20031;-76
2021/01/09 16:18:59;;;;;;;7.30;5.32;;;;;;;1.29;61.23;98111.63;13074744;22;20027;-74
2021/01/09 16:24:18;;;;;;;6.78;5.18;;;;;;;1.29;60.53;98111.63;13054949;22;20096;-73
2021/01/09 16:29:38;;;;;;;6.93;5.20;;;;;;;1.28;60.50;98110.16;13053075;22;20027;-73
2021/01/09 16:34:58;;;;;;;7.93;5.00;;;;;;;1.34;60.00;98111.53;13074319;22;20031;-73
2021/01/09 16:40:19;;;;;;;6.93;5.53;;;;;;;1.37;60.09;98121.50;13075294;22;20466;-74
2021/01/09 16:45:39;;;;;;;8.13;5.82;;;;;;;1.39;59.71;98118.97;13039096;22;20031;-75
2021/01/09 16:50:59;;;;;;;9.15;6.25;;;;;;;1.42;59.95;98115.16;13030389;22;20027;-76
2021/01/09 16:56:20;;;;;;;8.93;6.82;;;;;;;1.49;60.48;98115.84;13030242;22;20027;-76
2021/01/09 17:01:40;;;;;;;10.60;6.90;;;;;;;1.49;60.49;98119.31;13052205;22;20349;-77
2021/01/09 17:07:00;;;;;;;9.25;6.65;;;;;;;1.56;60.57;98106.97;13075049;22;20461;-76
2021/01/09 17:12:20;;;;;;;11.15;6.82;;;;;;;1.54;60.83;98110.22;13074388;22;20047;-76
2021/01/09 17:17:40;;;;;;;9.25;6.47;;;;;;;1.52;61.06;98110.00;13074350;22;20027;-77
2021/01/09 17:23:00;;;;;;;10.43;6.82;;;;;;;1.49;61.32;98116.56;13085864;22;20034;-79
2021/01/09 17:28:35;;;;;;;10.57;7.72;;;;;;;1.48;60.88;98125.34;13061930;22;20027;-78
2021/01/09 17:33:55;;;;;;;11.13;6.95;;;;;;;1.50;61.86;98131.81;13077054;22;20450;-78
2021/01/09 17:39:15;;;;;;;10.25;6.63;;;;;;;1.51;61.08;98122.28;13088782;22;20099;-79
2021/01/09 17:44:35;;;;;;;9.35;6.00;;;;;;;1.43;63.06;98127.66;13104974;22;20027;-81
2021/01/09 17:49:55;;;;;;;11.20;7.55;;;;;;;1.41;62.10;98130.19;13090066;22;20457;-78
2021/01/09 17:55:15;;;;;;;10.07;7.32;;;;;;;1.39;61.97;98129.97;13099357;22;20126;-80
2021/01/09 18:54:03;;;;;;;9.70;6.75;;;;;;;1.51;63.39;98155.31;12774850;23;20091;-77
2021/01/09 18:59:31;;;;;;;10.07;6.85;;;;;;;1.50;62.90;98164.81;12910401;22;20028;-81
2021/01/09 19:05:47;;;;;;;9.25;6.30;;;;;;;1.45;63.55;98165.66;12937714;22;20024;-84
2021/01/09 19:11:33;;;;;;;10.60;7.40;;;;;;;1.44;63.04;98164.91;12939643;23;20031;-76
2021/01/09 19:16:57;;;;;;;8.70;6.60;;;;;;;1.44;63.72;98175.91;12884957;23;20028;-76
2021/01/09 19:22:19;;;;;;;;;;;;;;;1.48;63.88;98177.63;12955935;23;20028;-77
2021/01/09 19:27:47;;;;;;;9.80;7.20;;;;;;;1.49;64.11;98185.34;12907996;23;20285;-80
2021/01/09 19:33:08;;;;;;;10.85;7.68;;;;;;;1.50;63.69;98175.09;12933132;23;20032;-80
2021/01/09 19:38:35;;;;;;;10.02;7.15;;;;;;;1.48;64.05;98174.88;13032497;22;20072;-77
2021/01/09 19:43:56;;;;;;;10.07;7.45;;;;;;;1.46;63.84;98186.41;13079468;22;20027;-75
2021/01/09 19:49:19;;;;;;;8.75;6.13;;;;;;;1.42;64.28;98175.69;13117844;22;20465;-75
2021/01/09 19:54:48;;;;;;;8.07;6.13;;;;;;;1.40;63.84;98177.47;13117496;22;20101;-75
2021/01/09 20:00:09;;;;;;;9.43;6.88;;;;;;;1.48;64.11;98188.63;13117613;22;20026;-75
2021/01/09 20:05:34;;;;;;;8.95;6.45;;;;;;;1.46;64.31;98186.41;13118561;22;20034;-76
2021/01/09 20:10:54;;;;;;;7.75;6.38;;;;;;;1.46;64.50;98191.91;13117634;22;20954;-75
2021/01/09 20:16:27;;;;;;;8.00;6.32;;;;;;;1.44;65.01;98192.41;13139188;22;20033;-76
2021/01/09 20:22:00;;;;;;;8.23;6.43;;;;;;;1.50;64.94;98192.34;13077627;22;20445;-75
2021/01/09 20:27:20;;;;;;;12.05;7.35;;;;;;;1.50;65.18;98191.59;13116907;22;20480;-77
2021/01/09 20:32:40;;;;;;;10.73;7.85;;;;;;;1.49;64.70;98201.13;13139063;22;20030;-76
2021/01/09 20:38:01;;;;;;;10.98;8.20;;;;;;;1.42;65.32;98197.69;13103322;22;20026;-77
2021/01/09 20:43:23;;;;;;;13.35;8.45;;;;;;;1.31;65.23;98197.84;13139292;22;20111;-76
2021/01/09 20:48:43;;;;;;;11.95;8.98;;;;;;;1.27;65.48;98219.44;13142253;22;20054;-77
2021/01/09 20:54:03;;;;;;;11.65;8.40;;;;;;;1.37;65.77;98233.56;13117296;22;20416;-77
2021/01/09 20:59:23;;;;;;;11.63;8.45;;;;;;;1.40;64.90;98235.25;13140128;22;20106;-78
2021/01/09 21:04:45;;;;;;;15.50;10.38;;;;;;;1.46;65.43;98246.19;13140642;22;20027;-78
2021/01/09 21:10:05;;;;;;;15.18;11.13;;;;;;;1.43;65.38;98247.97;13131350;22;20048;-80
2021/01/09 21:15:26;;;;;;;18.27;11.90;;;;;;;1.50;65.12;98235.63;13129332;22;20042;-80
2021/01/09 21:20:46;;;;;;;17.10;12.23;;;;;;;1.53;65.36;98234.56;13036184;22;20019;-79
2021/01/09 21:26:06;;;;;;;19.85;12.98;;;;;;;1.54;65.86;98244.31;13148275;22;20034;-80
2021/01/09 21:31:27;;;;;;;19.55;12.40;;;;;;;1.41;66.15;98242.25;13127729;22;20070;-80
2021/01/09 21:36:54;;;;;;;18.73;12.30;;;;;;;1.35;66.19;98253.34;13112714;22;20027;-79
2021/01/09 21:42:13;;;;;;;18.83;12.25;;;;;;;1.35;66.16;98253.34;13142185;22;20027;-78
2021/01/09 21:47:36;;;;;;;17.95;11.35;;;;;;;1.30;66.59;98250.63;13119539;22;20072;-78
2021/01/09 21:53:00;;;;;;;18.67;11.48;;;;;;;1.28;66.25;98259.41;13120422;22;20034;-78
2021/01/09 21:58:20;;;;;;;;;;;;;;;1.29;67.08;98260.91;13143615;22;20034;-78
2021/01/09 22:03:43;;;;;;;16.05;10.25;;;;;;;1.30;66.86;98267.88;13141842;22;19915;-78
2021/01/09 22:09:04;;;;;;;17.90;10.52;;;;;;;1.28;66.66;98266.94;13119312;22;20031;-78
2021/01/09 22:14:23;;;;;;;13.93;9.95;;;;;;;1.24;66.74;98261.69;13096840;22;20461;-78
2021/01/09 22:19:43;;;;;;;16.25;9.50;;;;;;;1.22;67.03;98258.00;13118509;22;20034;-78
2021/01/09 22:25:04;;;;;;;16.75;9.70;;;;;;;1.20;67.05;98264.00;13118771;22;20033;-78
2021/01/09 22:30:28;;;;;;;17.85;10.27;;;;;;;1.18;66.91;98263.78;13120683;22;20315;-78
2021/01/09 22:35:48;;;;;;;17.20;9.93;;;;;;;1.19;66.98;98257.03;13136978;22;20031;-78
2021/01/09 22:41:08;;;;;;;13.52;9.07;;;;;;;1.19;66.98;98257.03;13142400;22;20105;-78
2021/01/09 22:46:28;;;;;;;13.98;9.10;;;;;;;1.18;67.94;98263.78;13118160;22;20030;-78
2021/01/09 22:51:56;;;;;;;14.52;9.52;;;;;;;1.21;67.06;98271.00;13097057;22;20469;-78
2021/01/09 22:57:15;;;;;;;12.75;8.98;;;;;;;1.23;67.76;98276.72;13120599;22;20090;-78
2021/01/09 23:02:35;;;;;;;12.55;8.95;;;;;;;1.19;67.51;98268.03;13140712;22;20025;-78
2021/01/09 23:07:55;;;;;;;14.40;9.20;;;;;;;1.20;67.27;98272.25;13140922;22;20027;-78
2021/01/09 23:13:15;;;;;;;14.73;8.65;;;;;;;1.16;67.32;98280.06;13118005;22;20027;-78
2021/01/09 23:18:35;;;;;;;13.25;8.57;;;;;;;1.09;67.43;98270.41;13118062;22;20333;-78
2021/01/09 23:23:55;;;;;;;12.30;8.52;;;;;;;1.09;67.13;98258.66;13145934;22;20027;-78
2021/01/09 23:29:15;;;;;;;17.00;8.48;;;;;;;1.15;67.73;98262.81;13122157;22;20129;-78
2021/01/09 23:34:35;;;;;;;12.55;7.78;;;;;;;1.15;67.92;98256.56;13144399;22;20031;-78
2021/01/09 23:39:55;;;;;;;12.20;8.30;;;;;;;1.15;67.86;98245.56;13145728;22;20072;-78
2021/01/09 23:45:16;;;;;;;10.10;7.38;;;;;;;1.18;67.91;98247.28;13122643;22;20026;-78
2021/01/09 23:50:38;;;;;;;12.95;7.57;;;;;;;1.18;67.83;98239.03;13122367;22;20353;-78
2021/01/09 23:55:58;;;;;;;9.57;6.78;;;;;;;1.14;68.42;98244.06;13121054;22;20026;-78
